sensor_id;sensor_type;location;lat;lon;timestamp;pressure;altitude;pressure_sealevel;temperature;humidity
55932;BME280;41837;55.700;37.984;2023-01-23T00:00:41;102432.53;;;-3.43;100.00
55932;BME280;41837;55.700;37.984;2023-01-23T00:03:07;102429.88;;;-3.45;100.00
55932;BME280;41837;55.700;37.984;2023-01-23T00:05:33;102438.34;;;-3.76;100.00
55932;BME280;41837;55.700;37.984;2023-01-23T00:07:59;102434.56;;;-3.67;100.00
55932;BME280;41837;55.700;37.984;2023-01-23T00:10:25;102430.97;;;-3.56;100.00
55932;BME280;41837;55.700;37.984;2023-01-23T00:12:50;102431.72;;;-3.72;100.00
55932;BME280;41837;55.700;37.984;2023-01-23T00:15:17;102432.13;;;-3.51;100.00
55932;BME280;41837;55.700;37.984;2023-01-23T00:17:43;102425.94;;;-3.69;100.00
55932;BME280;41837;55.700;37.984;2023-01-23T00:20:11;102428.22;;;-3.59;100.00
55932;BME280;41837;55.700;37.984;2023-01-23T00:22:37;102431.22;;;-3.66;100.00
55932;BME280;41837;55.700;37.984;2023-01-23T00:25:03;102433.78;;;-3.51;100.00
55932;BME280;41837;55.700;37.984;2023-01-23T00:27:30;102429.63;;;-3.79;100.00
55932;BME280;41837;55.700;37.984;2023-01-23T00:29:57;102429.81;;;-3.46;100.00
55932;BME280;41837;55.700;37.984;2023-01-23T00:32:23;102432.28;;;-3.63;100.00
55932;BME280;41837;55.700;37.984;2023-01-23T00:34:49;102429.03;;;-3.30;100.00
55932;BME280;41837;55.700;37.984;2023-01-23T00:37:15;102423.13;;;-3.59;100.00
55932;BME280;41837;55.700;37.984;2023-01-23T00:39:42;102432.44;;;-3.89;100.00
55932;BME280;41837;55.700;37.984;2023-01-23T00:42:09;102436.47;;;-3.93;100.00
55932;BME280;41837;55.700;37.984;2023-01-23T00:44:35;102439.97;;;-3.63;100.00
55932;BME280;41837;55.700;37.984;2023-01-23T00:47:01;102442.16;;;-3.69;100.00
55932;BME280;41837;55.700;37.984;2023-01-23T00:49:28;102439.41;;;-3.87;100.00
55932;BME280;41837;55.700;37.984;2023-01-23T00:51:55;102442.38;;;-3.94;100.00
55932;BME280;41837;55.700;37.984;2023-01-23T00:54:21;102449.44;;;-3.90;100.00
55932;BME280;41837;55.700;37.984;2023-01-23T00:56:49;102451.13;;;-3.76;100.00
55932;BME280;41837;55.700;37.984;2023-01-23T00:59:15;102443.50;;;-3.46;100.00
55932;BME280;41837;55.700;37.984;2023-01-23T01:01:41;102446.38;;;-3.69;100.00
55932;BME280;41837;55.700;37.984;2023-01-23T01:04:07;102447.09;;;-3.42;100.00
55932;BME280;41837;55.700;37.984;2023-01-23T01:06:34;102444.28;;;-3.32;100.00
55932;BME280;41837;55.700;37.984;2023-01-23T01:09:01;102454.88;;;-3.41;100.00
55932;BME280;41837;55.700;37.984;2023-01-23T01:11:28;102445.34;;;-3.73;100.00
55932;BME280;41837;55.700;37.984;2023-01-23T01:13:57;102452.91;;;-3.45;100.00
55932;BME280;41837;55.700;37.984;2023-01-23T01:16:24;102448.28;;;-3.80;100.00
55932;BME280;41837;55.700;37.984;2023-01-23T01:18:54;102450.69;;;-3.83;100.00
55932;BME280;41837;55.700;37.984;2023-01-23T01:21:19;102447.31;;;-3.82;100.00
55932;BME280;41837;55.700;37.984;2023-01-23T01:23:46;102448.25;;;-3.52;100.00
55932;BME280;41837;55.700;37.984;2023-01-23T01:26:12;102447.53;;;-3.34;100.00
55932;BME280;41837;55.700;37.984;2023-01-23T01:28:38;102445.41;;;-3.57;100.00
55932;BME280;41837;55.700;37.984;2023-01-23T01:31:05;102450.22;;;-3.91;100.00
55932;BME280;41837;55.700;37.984;2023-01-23T01:33:31;102445.59;;;-3.53;100.00
55932;BME280;41837;55.700;37.984;2023-01-23T01:36:00;102454.16;;;-3.68;100.00
55932;BME280;41837;55.700;37.984;2023-01-23T01:38:26;102448.50;;;-3.47;100.00
55932;BME280;41837;55.700;37.984;2023-01-23T01:40:52;102452.22;;;-3.57;100.00
55932;BME280;41837;55.700;37.984;2023-01-23T01:43:22;102445.91;;;-3.17;100.00
55932;BME280;41837;55.700;37.984;2023-01-23T01:46:09;102452.47;;;-3.23;100.00
55932;BME280;41837;55.700;37.984;2023-01-23T01:51:23;102449.13;;;-3.51;100.00
55932;BME280;41837;55.700;37.984;2023-01-23T01:53:57;102450.84;;;-3.80;100.00
55932;BME280;41837;55.700;37.984;2023-01-23T01:56:25;102440.38;;;-3.25;100.00
55932;BME280;41837;55.700;37.984;2023-01-23T01:58:52;102450.44;;;-3.43;100.00
55932;BME280;41837;55.700;37.984;2023-01-23T02:01:19;102448.69;;;-3.44;100.00
55932;BME280;41837;55.700;37.984;2023-01-23T02:03:45;102447.00;;;-3.29;100.00
55932;BME280;41837;55.700;37.984;2023-01-23T02:06:12;102448.78;;;-3.58;100.00
55932;BME280;41837;55.700;37.984;2023-01-23T02:08:56;102431.78;;;-2.96;100.00
55932;BME280;41837;55.700;37.984;2023-01-23T02:11:27;102443.81;;;-2.78;100.00
55932;BME280;41837;55.700;37.984;2023-01-23T02:13:52;102439.59;;;-2.78;100.00
55932;BME280;41837;55.700;37.984;2023-01-23T02:16:25;102441.53;;;-3.20;100.00
55932;BME280;41837;55.700;37.984;2023-01-23T02:18:56;102439.50;;;-2.79;100.00
55932;BME280;41837;55.700;37.984;2023-01-23T02:21:24;102438.97;;;-3.50;100.00
55932;BME280;41837;55.700;37.984;2023-01-23T02:26:30;102434.44;;;-3.09;100.00
55932;BME280;41837;55.700;37.984;2023-01-23T02:29:01;102432.25;;;-3.03;100.00
55932;BME280;41837;55.700;37.984;2023-01-23T02:31:31;102437.84;;;-3.25;100.00
55932;BME280;41837;55.700;37.984;2023-01-23T02:33:58;102442.25;;;-3.67;100.00
55932;BME280;41837;55.700;37.984;2023-01-23T02:36:27;102439.63;;;-3.39;100.00
55932;BME280;41837;55.700;37.984;2023-01-23T02:41:29;102448.31;;;-3.65;100.00
55932;BME280;41837;55.700;37.984;2023-01-23T02:43:57;102453.88;;;-3.72;100.00
55932;BME280;41837;55.700;37.984;2023-01-23T02:46:25;102442.50;;;-3.63;100.00
55932;BME280;41837;55.700;37.984;2023-01-23T02:48:51;102444.97;;;-3.79;100.00
55932;BME280;41837;55.700;37.984;2023-01-23T02:51:18;102447.16;;;-3.70;100.00
55932;BME280;41837;55.700;37.984;2023-01-23T02:53:46;102440.84;;;-3.47;100.00
55932;BME280;41837;55.700;37.984;2023-01-23T02:56:11;102442.41;;;-3.79;100.00
55932;BME280;41837;55.700;37.984;2023-01-23T02:58:37;102443.31;;;-3.49;100.00
55932;BME280;41837;55.700;37.984;2023-01-23T03:01:22;102434.13;;;-3.30;100.00
55932;BME280;41837;55.700;37.984;2023-01-23T03:03:49;102448.97;;;-3.54;100.00
55932;BME280;41837;55.700;37.984;2023-01-23T03:06:16;102449.91;;;-3.67;100.00
55932;BME280;41837;55.700;37.984;2023-01-23T03:08:42;102451.41;;;-3.71;100.00
55932;BME280;41837;55.700;37.984;2023-01-23T03:11:16;102448.50;;;-3.47;100.00
55932;BME280;41837;55.700;37.984;2023-01-23T03:13:42;102452.75;;;-3.63;100.00
55932;BME280;41837;55.700;37.984;2023-01-23T03:16:09;102453.59;;;-3.77;100.00
55932;BME280;41837;55.700;37.984;2023-01-23T03:18:35;102455.97;;;-3.80;100.00
55932;BME280;41837;55.700;37.984;2023-01-23T03:21:02;102453.63;;;-3.47;100.00
55932;BME280;41837;55.700;37.984;2023-01-23T03:23:29;102445.50;;;-3.70;100.00
55932;BME280;41837;55.700;37.984;2023-01-23T03:25:55;102449.22;;;-3.65;100.00
55932;BME280;41837;55.700;37.984;2023-01-23T03:28:27;102452.41;;;-3.97;100.00
55932;BME280;41837;55.700;37.984;2023-01-23T03:31:13;102457.16;;;-3.75;100.00
55932;BME280;41837;55.700;37.984;2023-01-23T03:33:40;102454.31;;;-3.50;100.00
55932;BME280;41837;55.700;37.984;2023-01-23T03:36:10;102460.34;;;-3.49;100.00
55932;BME280;41837;55.700;37.984;2023-01-23T03:38:36;102459.34;;;-3.37;100.00
55932;BME280;41837;55.700;37.984;2023-01-23T03:41:05;102456.44;;;-3.58;100.00
55932;BME280;41837;55.700;37.984;2023-01-23T03:43:50;102451.66;;;-3.51;100.00
55932;BME280;41837;55.700;37.984;2023-01-23T03:46:16;102450.53;;;-3.27;100.00
55932;BME280;41837;55.700;37.984;2023-01-23T03:48:43;102457.50;;;-3.54;100.00
55932;BME280;41837;55.700;37.984;2023-01-23T03:51:09;102447.97;;;-3.57;100.00
55932;BME280;41837;55.700;37.984;2023-01-23T03:53:36;102454.66;;;-3.59;100.00
55932;BME280;41837;55.700;37.984;2023-01-23T03:56:03;102453.53;;;-3.49;100.00
55932;BME280;41837;55.700;37.984;2023-01-23T03:58:29;102456.63;;;-3.54;100.00
55932;BME280;41837;55.700;37.984;2023-01-23T04:00:55;102458.19;;;-3.57;100.00
55932;BME280;41837;55.700;37.984;2023-01-23T04:03:22;102463.66;;;-3.65;100.00
55932;BME280;41837;55.700;37.984;2023-01-23T04:05:53;102455.31;;;-3.48;100.00
55932;BME280;41837;55.700;37.984;2023-01-23T04:08:19;102469.59;;;-3.37;100.00
55932;BME280;41837;55.700;37.984;2023-01-23T04:10:47;102464.91;;;-3.59;100.00
55932;BME280;41837;55.700;37.984;2023-01-23T04:13:15;102462.97;;;-3.33;100.00
55932;BME280;41837;55.700;37.984;2023-01-23T04:15:42;102469.13;;;-3.59;100.00
55932;BME280;41837;55.700;37.984;2023-01-23T04:18:08;102465.97;;;-3.25;100.00
55932;BME280;41837;55.700;37.984;2023-01-23T04:20:34;102465.88;;;-3.57;100.00
55932;BME280;41837;55.700;37.984;2023-01-23T04:23:01;102437.16;;;-3.38;100.00
55932;BME280;41837;55.700;37.984;2023-01-23T04:25:28;102465.34;;;-3.21;100.00
55932;BME280;41837;55.700;37.984;2023-01-23T04:27:54;102458.00;;;-3.00;100.00
55932;BME280;41837;55.700;37.984;2023-01-23T04:30:20;102461.63;;;-3.26;100.00
55932;BME280;41837;55.700;37.984;2023-01-23T04:32:46;102459.94;;;-2.96;100.00
55932;BME280;41837;55.700;37.984;2023-01-23T04:35:15;102471.78;;;-3.13;100.00
55932;BME280;41837;55.700;37.984;2023-01-23T04:37:41;102471.53;;;-3.47;100.00
55932;BME280;41837;55.700;37.984;2023-01-23T04:40:08;102475.78;;;-3.91;100.00
55932;BME280;41837;55.700;37.984;2023-01-23T04:42:46;102480.34;;;-3.42;100.00
55932;BME280;41837;55.700;37.984;2023-01-23T04:45:27;102483.88;;;-3.25;100.00
55932;BME280;41837;55.700;37.984;2023-01-23T04:48:23;102483.06;;;-3.54;100.00
55932;BME280;41837;55.700;37.984;2023-01-23T04:50:50;102484.06;;;-3.37;100.00
55932;BME280;41837;55.700;37.984;2023-01-23T04:53:15;102487.03;;;-3.00;100.00
55932;BME280;41837;55.700;37.984;2023-01-23T04:55:42;102485.56;;;-3.26;100.00
55932;BME280;41837;55.700;37.984;2023-01-23T04:58:13;102494.53;;;-3.47;100.00
55932;BME280;41837;55.700;37.984;2023-01-23T05:00:40;102503.47;;;-3.84;100.00
55932;BME280;41837;55.700;37.984;2023-01-23T05:03:06;102501.63;;;-3.86;100.00
55932;BME280;41837;55.700;37.984;2023-01-23T05:05:35;102496.31;;;-3.61;100.00
55932;BME280;41837;55.700;37.984;2023-01-23T05:08:01;102505.50;;;-3.20;100.00
55932;BME280;41837;55.700;37.984;2023-01-23T05:10:28;102506.72;;;-3.43;100.00
55932;BME280;41837;55.700;37.984;2023-01-23T05:12:56;102505.31;;;-3.53;100.00
55932;BME280;41837;55.700;37.984;2023-01-23T05:15:24;102507.06;;;-3.37;100.00
55932;BME280;41837;55.700;37.984;2023-01-23T05:17:50;102507.53;;;-3.44;100.00
55932;BME280;41837;55.700;37.984;2023-01-23T05:20:16;102513.06;;;-3.37;100.00
55932;BME280;41837;55.700;37.984;2023-01-23T05:22:42;102514.31;;;-3.30;100.00
55932;BME280;41837;55.700;37.984;2023-01-23T05:25:22;102514.28;;;-3.45;100.00
55932;BME280;41837;55.700;37.984;2023-01-23T05:27:49;102518.25;;;-3.50;100.00
55932;BME280;41837;55.700;37.984;2023-01-23T05:30:16;102520.97;;;-3.62;100.00
55932;BME280;41837;55.700;37.984;2023-01-23T05:32:43;102526.06;;;-3.62;100.00
55932;BME280;41837;55.700;37.984;2023-01-23T05:35:16;102521.63;;;-3.51;100.00
55932;BME280;41837;55.700;37.984;2023-01-23T05:37:42;102535.16;;;-3.67;100.00
55932;BME280;41837;55.700;37.984;2023-01-23T05:40:09;102529.72;;;-3.43;100.00
55932;BME280;41837;55.700;37.984;2023-01-23T05:42:56;102534.91;;;-3.57;100.00
55932;BME280;41837;55.700;37.984;2023-01-23T05:45:31;102531.56;;;-3.56;100.00
55932;BME280;41837;55.700;37.984;2023-01-23T05:47:59;102537.25;;;-3.75;100.00
55932;BME280;41837;55.700;37.984;2023-01-23T05:50:28;102536.88;;;-3.52;100.00
55932;BME280;41837;55.700;37.984;2023-01-23T05:52:54;102540.03;;;-3.57;100.00
55932;BME280;41837;55.700;37.984;2023-01-23T05:55:21;102536.06;;;-3.51;100.00
55932;BME280;41837;55.700;37.984;2023-01-23T05:57:49;102551.19;;;-3.11;100.00
55932;BME280;41837;55.700;37.984;2023-01-23T06:00:34;102547.13;;;-3.23;100.00
55932;BME280;41837;55.700;37.984;2023-01-23T06:03:19;102551.34;;;-3.38;100.00
55932;BME280;41837;55.700;37.984;2023-01-23T06:06:00;102554.91;;;-3.36;100.00
55932;BME280;41837;55.700;37.984;2023-01-23T06:08:27;102549.41;;;-2.97;100.00
55932;BME280;41837;55.700;37.984;2023-01-23T06:10:53;102554.53;;;-2.97;100.00
55932;BME280;41837;55.700;37.984;2023-01-23T06:13:19;102557.38;;;-3.08;100.00
55932;BME280;41837;55.700;37.984;2023-01-23T06:15:45;102557.91;;;-3.13;100.00
55932;BME280;41837;55.700;37.984;2023-01-23T06:18:11;102565.69;;;-3.12;100.00
55932;BME280;41837;55.700;37.984;2023-01-23T06:20:36;102560.47;;;-2.98;100.00
55932;BME280;41837;55.700;37.984;2023-01-23T06:23:03;102562.41;;;-3.09;100.00
55932;BME280;41837;55.700;37.984;2023-01-23T06:25:28;102548.28;;;-2.88;99.89
55932;BME280;41837;55.700;37.984;2023-01-23T06:27:57;102556.91;;;-3.01;98.29
55932;BME280;41837;55.700;37.984;2023-01-23T06:30:25;102557.09;;;-3.42;100.00
55932;BME280;41837;55.700;37.984;2023-01-23T06:32:51;102554.91;;;-2.91;99.14
55932;BME280;41837;55.700;37.984;2023-01-23T06:35:23;102557.72;;;-2.87;98.04
55932;BME280;41837;55.700;37.984;2023-01-23T06:37:49;102556.41;;;-3.10;97.89
55932;BME280;41837;55.700;37.984;2023-01-23T06:40:18;102558.53;;;-2.88;96.46
55932;BME280;41837;55.700;37.984;2023-01-23T06:43:04;102556.81;;;-3.32;98.36
55932;BME280;41837;55.700;37.984;2023-01-23T06:45:31;102561.25;;;-3.14;97.41
55932;BME280;41837;55.700;37.984;2023-01-23T06:47:57;102563.22;;;-3.10;98.40
55932;BME280;41837;55.700;37.984;2023-01-23T06:50:25;102570.97;;;-2.79;95.69
55932;BME280;41837;55.700;37.984;2023-01-23T06:52:51;102559.63;;;-2.53;94.13
55932;BME280;41837;55.700;37.984;2023-01-23T06:55:17;102562.81;;;-2.57;93.43
55932;BME280;41837;55.700;37.984;2023-01-23T06:57:43;102567.50;;;-3.39;95.96
55932;BME280;41837;55.700;37.984;2023-01-23T07:00:10;102568.75;;;-3.32;97.26
55932;BME280;41837;55.700;37.984;2023-01-23T07:02:36;102571.22;;;-3.04;96.79
55932;BME280;41837;55.700;37.984;2023-01-23T07:05:03;102570.88;;;-3.25;96.86
55932;BME280;41837;55.700;37.984;2023-01-23T07:07:30;102571.75;;;-3.10;96.54
55932;BME280;41837;55.700;37.984;2023-01-23T07:09:56;102574.78;;;-3.45;99.25
55932;BME280;41837;55.700;37.984;2023-01-23T07:12:23;102570.06;;;-3.09;97.63
55932;BME280;41837;55.700;37.984;2023-01-23T07:14:50;102577.56;;;-3.27;96.59
55932;BME280;41837;55.700;37.984;2023-01-23T07:17:21;102563.56;;;-3.19;96.30
55932;BME280;41837;55.700;37.984;2023-01-23T07:19:46;102573.97;;;-3.01;95.78
55932;BME280;41837;55.700;37.984;2023-01-23T07:22:16;102568.09;;;-3.43;97.43
55932;BME280;41837;55.700;37.984;2023-01-23T07:24:43;102573.41;;;-3.40;97.64
55932;BME280;41837;55.700;37.984;2023-01-23T07:27:08;102570.59;;;-3.30;97.12
55932;BME280;41837;55.700;37.984;2023-01-23T07:29:47;102566.63;;;-3.68;98.01
55932;BME280;41837;55.700;37.984;2023-01-23T07:32:14;102572.72;;;-3.66;99.54
55932;BME280;41837;55.700;37.984;2023-01-23T07:34:39;102570.94;;;-3.39;98.04
55932;BME280;41837;55.700;37.984;2023-01-23T07:37:05;102571.31;;;-3.61;98.05
55932;BME280;41837;55.700;37.984;2023-01-23T07:39:32;102570.44;;;-3.03;96.99
55932;BME280;41837;55.700;37.984;2023-01-23T07:41:57;102578.47;;;-3.55;96.26
55932;BME280;41837;55.700;37.984;2023-01-23T07:44:26;102578.19;;;-3.16;95.42
55932;BME280;41837;55.700;37.984;2023-01-23T07:46:52;102578.53;;;-3.25;94.94
55932;BME280;41837;55.700;37.984;2023-01-23T07:49:18;102583.28;;;-3.31;94.64
55932;BME280;41837;55.700;37.984;2023-01-23T07:51:44;102577.19;;;-3.33;95.11
55932;BME280;41837;55.700;37.984;2023-01-23T07:54:10;102574.13;;;-2.68;91.72
55932;BME280;41837;55.700;37.984;2023-01-23T07:56:36;102576.34;;;-2.89;91.60
55932;BME280;41837;55.700;37.984;2023-01-23T07:59:03;102575.78;;;-2.54;89.66
55932;BME280;41837;55.700;37.984;2023-01-23T08:01:28;102579.03;;;-2.56;89.04
55932;BME280;41837;55.700;37.984;2023-01-23T08:03:54;102571.69;;;-2.82;89.36
55932;BME280;41837;55.700;37.984;2023-01-23T08:06:20;102576.06;;;-2.79;90.04
55932;BME280;41837;55.700;37.984;2023-01-23T08:08:47;102573.78;;;-3.19;92.05
55932;BME280;41837;55.700;37.984;2023-01-23T08:11:13;102579.56;;;-3.37;92.09
55932;BME280;41837;55.700;37.984;2023-01-23T08:13:39;102574.56;;;-3.20;91.02
55932;BME280;41837;55.700;37.984;2023-01-23T08:16:14;102581.91;;;-2.96;89.48
55932;BME280;41837;55.700;37.984;2023-01-23T08:18:41;102575.66;;;-2.87;88.06
55932;BME280;41837;55.700;37.984;2023-01-23T08:21:08;102577.75;;;-2.79;88.18
55932;BME280;41837;55.700;37.984;2023-01-23T08:23:34;102588.16;;;-3.21;89.54
55932;BME280;41837;55.700;37.984;2023-01-23T08:26:02;102583.94;;;-3.06;89.35
55932;BME280;41837;55.700;37.984;2023-01-23T08:28:28;102586.53;;;-2.45;88.35
55932;BME280;41837;55.700;37.984;2023-01-23T08:30:58;102575.91;;;-2.82;88.71
55932;BME280;41837;55.700;37.984;2023-01-23T08:33:25;102582.47;;;-2.10;85.40
55932;BME280;41837;55.700;37.984;2023-01-23T08:35:52;102585.06;;;-3.01;86.55
55932;BME280;41837;55.700;37.984;2023-01-23T08:38:18;102590.56;;;-2.94;87.98
55932;BME280;41837;55.700;37.984;2023-01-23T08:40:45;102589.13;;;-3.04;91.98
55932;BME280;41837;55.700;37.984;2023-01-23T08:43:11;102591.44;;;-2.79;89.76
55932;BME280;41837;55.700;37.984;2023-01-23T08:45:48;102586.03;;;-2.84;88.70
55932;BME280;41837;55.700;37.984;2023-01-23T08:48:16;102588.28;;;-2.75;87.55
55932;BME280;41837;55.700;37.984;2023-01-23T08:50:42;102587.47;;;-2.74;88.37
55932;BME280;41837;55.700;37.984;2023-01-23T08:53:08;102588.41;;;-2.72;87.76
55932;BME280;41837;55.700;37.984;2023-01-23T08:55:34;102581.53;;;-3.17;90.87
55932;BME280;41837;55.700;37.984;2023-01-23T08:58:02;102587.13;;;-2.95;92.27
55932;BME280;41837;55.700;37.984;2023-01-23T09:00:27;102588.25;;;-3.20;94.20
55932;BME280;41837;55.700;37.984;2023-01-23T09:02:53;102595.75;;;-3.08;93.43
55932;BME280;41837;55.700;37.984;2023-01-23T09:05:19;102592.22;;;-2.65;94.94
55932;BME280;41837;55.700;37.984;2023-01-23T09:07:46;102594.97;;;-2.77;95.69
55932;BME280;41837;55.700;37.984;2023-01-23T09:10:12;102593.03;;;-2.81;93.97
55932;BME280;41837;55.700;37.984;2023-01-23T09:12:41;102600.25;;;-2.44;92.13
55932;BME280;41837;55.700;37.984;2023-01-23T09:15:08;102584.75;;;-2.92;92.51
55932;BME280;41837;55.700;37.984;2023-01-23T09:17:34;102586.19;;;-3.40;95.39
55932;BME280;41837;55.700;37.984;2023-01-23T09:20:00;102588.88;;;-2.64;95.16
55932;BME280;41837;55.700;37.984;2023-01-23T09:22:26;102596.66;;;-2.92;94.41
55932;BME280;41837;55.700;37.984;2023-01-23T09:24:52;102598.91;;;-3.27;96.57
55932;BME280;41837;55.700;37.984;2023-01-23T09:27:19;102589.66;;;-3.10;98.56
55932;BME280;41837;55.700;37.984;2023-01-23T09:29:45;102592.28;;;-3.23;100.00
55932;BME280;41837;55.700;37.984;2023-01-23T09:32:11;102591.00;;;-3.45;98.45
55932;BME280;41837;55.700;37.984;2023-01-23T09:34:37;102590.03;;;-3.19;95.92
55932;BME280;41837;55.700;37.984;2023-01-23T09:37:04;102586.50;;;-2.76;93.95
55932;BME280;41837;55.700;37.984;2023-01-23T09:39:30;102580.75;;;-3.16;92.47
55932;BME280;41837;55.700;37.984;2023-01-23T09:41:56;102580.78;;;-3.45;93.07
55932;BME280;41837;55.700;37.984;2023-01-23T09:44:24;102590.03;;;-3.47;92.96
55932;BME280;41837;55.700;37.984;2023-01-23T09:46:58;102583.19;;;-3.33;91.86
55932;BME280;41837;55.700;37.984;2023-01-23T09:49:39;102580.28;;;-3.24;92.23
55932;BME280;41837;55.700;37.984;2023-01-23T09:52:26;102582.97;;;-2.78;89.79
55932;BME280;41837;55.700;37.984;2023-01-23T09:55:03;102574.91;;;-2.54;88.63
55932;BME280;41837;55.700;37.984;2023-01-23T09:57:41;102566.47;;;-2.37;87.54
55932;BME280;41837;55.700;37.984;2023-01-23T10:00:16;102565.34;;;-1.94;86.37
55932;BME280;41837;55.700;37.984;2023-01-23T10:02:45;102571.31;;;-2.88;86.75
55932;BME280;41837;55.700;37.984;2023-01-23T10:05:21;102568.75;;;-3.03;89.21
55932;BME280;41837;55.700;37.984;2023-01-23T10:08:12;102563.72;;;-3.01;90.48
55932;BME280;41837;55.700;37.984;2023-01-23T10:14:01;102564.91;;;-2.50;86.53
55932;BME280;41837;55.700;37.984;2023-01-23T10:21:20;102562.25;;;-2.51;86.96
55932;BME280;41837;55.700;37.984;2023-01-23T10:26:18;102554.16;;;-1.96;84.18
55932;BME280;41837;55.700;37.984;2023-01-23T10:28:45;102557.19;;;-2.81;85.95
55932;BME280;41837;55.700;37.984;2023-01-23T10:31:34;102563.72;;;-2.86;86.81
55932;BME280;41837;55.700;37.984;2023-01-23T10:34:10;102558.34;;;-2.91;86.52
55932;BME280;41837;55.700;37.984;2023-01-23T10:39:26;102564.28;;;-2.92;88.62
55932;BME280;41837;55.700;37.984;2023-01-23T10:41:53;102560.16;;;-2.73;88.09
55932;BME280;41837;55.700;37.984;2023-01-23T10:44:19;102567.59;;;-2.63;85.83
55932;BME280;41837;55.700;37.984;2023-01-23T10:46:46;102566.69;;;-2.49;86.72
55932;BME280;41837;55.700;37.984;2023-01-23T10:49:26;102562.97;;;-2.54;86.95
55932;BME280;41837;55.700;37.984;2023-01-23T10:51:52;102558.59;;;-2.71;87.60
55932;BME280;41837;55.700;37.984;2023-01-23T10:54:22;102555.50;;;-2.66;88.21
55932;BME280;41837;55.700;37.984;2023-01-23T10:56:53;102549.13;;;-2.57;87.57
55932;BME280;41837;55.700;37.984;2023-01-23T10:59:20;102550.09;;;-2.70;88.05
55932;BME280;41837;55.700;37.984;2023-01-23T11:01:53;102549.41;;;-2.68;89.59
55932;BME280;41837;55.700;37.984;2023-01-23T11:04:22;102544.56;;;-2.78;90.99
55932;BME280;41837;55.700;37.984;2023-01-23T11:07:02;102543.28;;;-2.55;89.54
55932;BME280;41837;55.700;37.984;2023-01-23T11:09:28;102542.00;;;-2.78;89.22
55932;BME280;41837;55.700;37.984;2023-01-23T11:12:03;102541.31;;;-2.44;89.42
55932;BME280;41837;55.700;37.984;2023-01-23T11:14:29;102545.69;;;-2.27;88.96
55932;BME280;41837;55.700;37.984;2023-01-23T11:17:11;102544.75;;;-2.44;88.78
55932;BME280;41837;55.700;37.984;2023-01-23T11:19:42;102540.69;;;-2.40;88.30
55932;BME280;41837;55.700;37.984;2023-01-23T11:22:22;102541.63;;;-2.54;90.50
55932;BME280;41837;55.700;37.984;2023-01-23T11:24:49;102541.34;;;-2.28;89.51
55932;BME280;41837;55.700;37.984;2023-01-23T11:27:17;102544.09;;;-2.56;90.00
55932;BME280;41837;55.700;37.984;2023-01-23T11:32:13;102539.16;;;-2.68;91.04
55932;BME280;41837;55.700;37.984;2023-01-23T11:34:42;102543.06;;;-2.74;91.55
55932;BME280;41837;55.700;37.984;2023-01-23T11:37:24;102544.47;;;-2.33;91.03
55932;BME280;41837;55.700;37.984;2023-01-23T11:42:18;102552.06;;;-3.11;95.29
55932;BME280;41837;55.700;37.984;2023-01-23T11:44:45;102549.34;;;-2.84;94.67
55932;BME280;41837;55.700;37.984;2023-01-23T12:00:26;102551.00;;;-2.70;95.53
55932;BME280;41837;55.700;37.984;2023-01-23T12:05:32;102555.13;;;-2.72;95.32
55932;BME280;41837;55.700;37.984;2023-01-23T12:21:10;102546.28;;;-2.47;95.48
55932;BME280;41837;55.700;37.984;2023-01-23T12:26:12;102545.47;;;-2.46;95.92
55932;BME280;41837;55.700;37.984;2023-01-23T12:36:47;102538.34;;;-2.20;96.03
55932;BME280;41837;55.700;37.984;2023-01-23T12:39:26;102539.44;;;-2.32;95.99
55932;BME280;41837;55.700;37.984;2023-01-23T12:42:01;102535.59;;;-2.55;96.48
55932;BME280;41837;55.700;37.984;2023-01-23T12:44:35;102537.44;;;-2.21;96.58
55932;BME280;41837;55.700;37.984;2023-01-23T12:47:04;102534.97;;;-2.19;94.98
55932;BME280;41837;55.700;37.984;2023-01-23T12:52:06;102529.69;;;-2.54;96.71
55932;BME280;41837;55.700;37.984;2023-01-23T12:54:36;102524.94;;;-2.63;97.96
55932;BME280;41837;55.700;37.984;2023-01-23T12:57:06;102537.75;;;-2.77;99.25
55932;BME280;41837;55.700;37.984;2023-01-23T12:59:36;102530.53;;;-2.38;97.32
55932;BME280;41837;55.700;37.984;2023-01-23T13:02:13;102525.91;;;-2.75;98.87
55932;BME280;41837;55.700;37.984;2023-01-23T13:04:49;102525.91;;;-2.75;99.94
55932;BME280;41837;55.700;37.984;2023-01-23T13:10:03;102532.00;;;-2.73;100.00
55932;BME280;41837;55.700;37.984;2023-01-23T13:12:30;102541.47;;;-2.72;100.00
55932;BME280;41837;55.700;37.984;2023-01-23T13:20:36;102529.47;;;-2.42;99.33
55932;BME280;41837;55.700;37.984;2023-01-23T13:23:35;102522.66;;;-2.73;99.57
55932;BME280;41837;55.700;37.984;2023-01-23T13:28:43;102523.31;;;-2.92;100.00
55932;BME280;41837;55.700;37.984;2023-01-23T13:31:43;102528.19;;;-2.65;100.00
55932;BME280;41837;55.700;37.984;2023-01-23T13:36:50;102530.25;;;-2.43;100.00
55932;BME280;41837;55.700;37.984;2023-01-23T13:41:44;102533.38;;;-2.49;98.49
55932;BME280;41837;55.700;37.984;2023-01-23T13:44:21;102526.22;;;-2.23;98.40
55932;BME280;41837;55.700;37.984;2023-01-23T13:47:03;102531.78;;;-2.15;95.68
55932;BME280;41837;55.700;37.984;2023-01-23T13:52:21;102534.22;;;-2.33;96.54
55932;BME280;41837;55.700;37.984;2023-01-23T13:55:14;102523.09;;;-2.17;95.77
55932;BME280;41837;55.700;37.984;2023-01-23T13:58:00;102521.22;;;-2.53;97.12
55932;BME280;41837;55.700;37.984;2023-01-23T14:00:26;102508.72;;;-2.63;97.82
55932;BME280;41837;55.700;37.984;2023-01-23T14:02:56;102516.78;;;-2.24;97.87
55932;BME280;41837;55.700;37.984;2023-01-23T14:05:41;102524.75;;;-2.34;97.72
55932;BME280;41837;55.700;37.984;2023-01-23T14:08:18;102489.19;;;-2.76;98.09
55932;BME280;41837;55.700;37.984;2023-01-23T14:10:46;102519.09;;;-2.60;97.83
55932;BME280;41837;55.700;37.984;2023-01-23T14:13:17;102509.88;;;-2.56;99.39